Station Historical Data
Daily Summary for May 7, 2011 Units:  Both    English   Metric
« Previous Day
Next Day »
Daily Weekly Monthly Yearly Custom
  High: Low: Average:
Temperature: 75.6 °F /  24.2 °C 48.7 °F /  9.3 °C 62.6 °F /  17 °C
Dew Point: 59.4 °F /  15.2 °C 46.5 °F /  8.1 °C 53 °F /  11.7 °C
Humidity: 94% 55% 72%
Wind Speed: 13.0mph /  20.9km/h - 3.3mph /  5.3km/h
Wind Gust: 17.0mph /  27.4km/h - -
Wind- - South
Pressure: 30.02 in /  1016.5 hPa 29.83 in /  1010 hPa -
Precipitation: 0.00 in /  0 mm    
Historical Graphs
 
 
Tabular Data for May 7, 2011
Time Temperature Dew Point Pressure Wind Wind Speed Wind Gust Humidity Rainfall Rate (Hourly) Conditions
00:00 53.5 °F /  11.9 °C 47.5 °F /  8.6 °C 29.97in /  1014.8hPa Calm     80% 0.00in /  0mm
00:01 53.6 °F /  12 °C 47.6 °F /  8.7 °C 29.97in /  1014.8hPa Calm     80% 0.00in /  0mm
00:05 54.1 °F /  12.3 °C 47.4 °F /  8.6 °C 29.97in /  1014.8hPa Calm     78% 0.00in /  0mm
00:06 54.2 °F /  12.3 °C 47.5 °F /  8.6 °C 29.96in /  1014.4hPa Calm     78% 0.00in /  0mm
00:11 53.9 °F /  12.2 °C 47.5 °F /  8.6 °C 29.97in /  1014.8hPa Calm     79% 0.00in /  0mm
00:16 53.6 °F /  12 °C 47.6 °F /  8.7 °C 29.97in /  1014.8hPa Calm     80% 0.00in /  0mm
00:21 53.4 °F /  11.9 °C 47.7 °F /  8.7 °C 29.97in /  1014.8hPa Calm     81% 0.00in /  0mm
00:26 53.2 °F /  11.8 °C 47.9 °F /  8.8 °C 29.96in /  1014.4hPa Calm     82% 0.00in /  0mm
00:28 53.1 °F /  11.7 °C 47.8 °F /  8.8 °C 29.96in /  1014.4hPa Calm     82% 0.00in /  0mm
00:29 53.1 °F /  11.7 °C 47.8 °F /  8.8 °C 29.97in /  1014.8hPa Calm     82% 0.00in /  0mm
00:32 52.9 °F /  11.6 °C 47.9 °F /  8.8 °C 29.97in /  1014.8hPa Calm     83% 0.00in /  0mm
00:34 52.7 °F /  11.5 °C 48.0 °F /  8.9 °C 29.97in /  1014.8hPa Calm     84% 0.00in /  0mm
00:37 52.7 °F /  11.5 °C 48.0 °F /  8.9 °C 29.96in /  1014.4hPa Calm     84% 0.00in /  0mm
00:42 52.3 °F /  11.3 °C 47.6 °F /  8.7 °C 29.96in /  1014.4hPa Calm     84% 0.00in /  0mm
00:47 52.5 °F /  11.4 °C 47.8 °F /  8.8 °C 29.96in /  1014.4hPa Calm     84% 0.00in /  0mm
00:52 52.7 °F /  11.5 °C 47.7 °F /  8.7 °C 29.97in /  1014.8hPa Calm     83% 0.00in /  0mm
00:53 52.7 °F /  11.5 °C 47.7 °F /  8.7 °C 29.97in /  1014.8hPa Calm     83% 0.00in /  0mm
00:57 52.8 °F /  11.6 °C 48.1 °F /  8.9 °C 29.97in /  1014.8hPa Calm     84% 0.00in /  0mm
00:58 52.8 °F /  11.6 °C 48.1 °F /  8.9 °C 29.97in /  1014.8hPa Calm     84% 0.00in /  0mm
00:59 52.8 °F /  11.6 °C 48.1 °F /  8.9 °C 29.97in /  1014.8hPa Calm     84% 0.00in /  0mm
01:02 52.6 °F /  11.4 °C 47.9 °F /  8.8 °C 29.97in /  1014.8hPa Calm     84% 0.00in /  0mm
01:07 51.8 °F /  11 °C 48.1 °F /  8.9 °C 29.97in /  1014.8hPa Calm     87% 0.00in /  0mm
01:12 51.3 °F /  10.7 °C 47.6 °F /  8.7 °C 29.97in /  1014.8hPa Calm     87% 0.00in /  0mm
01:17 50.8 °F /  10.4 °C 47.4 °F /  8.6 °C 29.97in /  1014.8hPa Calm     88% 0.00in /  0mm
01:22 50.8 °F /  10.4 °C 47.7 °F /  8.7 °C 29.97in /  1014.8hPa Calm     89% 0.00in /  0mm
01:24 50.6 °F /  10.3 °C 47.2 °F /  8.4 °C 29.97in /  1014.8hPa Calm     88% 0.00in /  0mm
01:28 50.3 °F /  10.2 °C 47.2 °F /  8.4 °C 29.97in /  1014.8hPa Calm     89% 0.00in /  0mm
01:29 50.2 °F /  10.1 °C 47.1 °F /  8.4 °C 29.97in /  1014.8hPa Calm     89% 0.00in /  0mm
01:30 50.1 °F /  10.1 °C 47.0 °F /  8.3 °C 29.97in /  1014.8hPa Calm     89% 0.00in /  0mm
01:31 50.1 °F /  10.1 °C 47.0 °F /  8.3 °C 29.97in /  1014.8hPa Calm     89% 0.00in /  0mm
01:34 50.0 °F /  10 °C 47.2 °F /  8.4 °C 29.97in /  1014.8hPa Calm     90% 0.00in /  0mm
01:35 50.1 °F /  10.1 °C 47.3 °F /  8.5 °C 29.97in /  1014.8hPa Calm     90% 0.00in /  0mm
01:36 50.1 °F /  10.1 °C 47.3 °F /  8.5 °C 29.97in /  1014.8hPa Calm     90% 0.00in /  0mm
01:37 50.2 °F /  10.1 °C 47.1 °F /  8.4 °C 29.97in /  1014.8hPa Calm     89% 0.00in /  0mm
01:41 50.5 °F /  10.3 °C 47.4 °F /  8.6 °C 29.97in /  1014.8hPa Calm     89% 0.00in /  0mm
01:46 51.4 °F /  10.8 °C 47.7 °F /  8.7 °C 29.97in /  1014.8hPa Calm     87% 0.00in /  0mm
01:51 51.1 °F /  10.6 °C 47.7 °F /  8.7 °C 29.97in /  1014.8hPa Calm     88% 0.00in /  0mm
01:56 51.0 °F /  10.6 °C 47.6 °F /  8.7 °C 29.97in /  1014.8hPa Calm     88% 0.00in /  0mm
01:58 51.1 °F /  10.6 °C 47.4 °F /  8.6 °C 29.97in /  1014.8hPa Calm     87% 0.00in /  0mm
02:03 51.1 °F /  10.6 °C 47.1 °F /  8.4 °C 29.97in /  1014.8hPa Calm     86% 0.00in /  0mm
02:08 50.7 °F /  10.4 °C 47.0 °F /  8.3 °C 29.97in /  1014.8hPa Calm     87% 0.00in /  0mm
02:13 50.5 °F /  10.3 °C 47.4 °F /  8.6 °C 29.97in /  1014.8hPa Calm     89% 0.00in /  0mm
02:18 50.6 °F /  10.3 °C 47.2 °F /  8.4 °C 29.97in /  1014.8hPa Calm     88% 0.00in /  0mm
02:23 50.6 °F /  10.3 °C 47.5 °F /  8.6 °C 29.97in /  1014.8hPa Calm     89% 0.00in /  0mm
02:28 50.6 °F /  10.3 °C 47.5 °F /  8.6 °C 29.97in /  1014.8hPa Calm     89% 0.00in /  0mm
02:29 50.7 °F /  10.4 °C 47.9 °F /  8.8 °C 29.97in /  1014.8hPa Calm     90% 0.00in /  0mm
02:34 50.8 °F /  10.4 °C 48.0 °F /  8.9 °C 29.97in /  1014.8hPa Calm     90% 0.00in /  0mm
02:36 50.8 °F /  10.4 °C 47.7 °F /  8.7 °C 29.97in /  1014.8hPa Calm     89% 0.00in /  0mm
02:41 50.7 °F /  10.4 °C 47.3 °F /  8.5 °C 29.97in /  1014.8hPa Calm     88% 0.00in /  0mm
02:46 50.4 °F /  10.2 °C 47.3 °F /  8.5 °C 29.97in /  1014.8hPa Calm     89% 0.00in /  0mm
02:51 50.1 °F /  10.1 °C 47.3 °F /  8.5 °C 29.97in /  1014.8hPa Calm     90% 0.00in /  0mm
02:52 50.0 °F /  10 °C 47.2 °F /  8.4 °C 29.97in /  1014.8hPa Calm     90% 0.00in /  0mm
02:54 50.0 °F /  10 °C 47.2 °F /  8.4 °C 29.97in /  1014.8hPa Calm     90% 0.00in /  0mm
02:57 50.1 °F /  10.1 °C 47.6 °F /  8.7 °C 29.97in /  1014.8hPa Calm     91% 0.00in /  0mm
02:58 50.2 °F /  10.1 °C 47.7 °F /  8.7 °C 29.97in /  1014.8hPa Calm     91% 0.00in /  0mm
03:03 50.2 °F /  10.1 °C 47.4 °F /  8.6 °C 29.97in /  1014.8hPa Calm     90% 0.00in /  0mm
03:04 50.2 °F /  10.1 °C 47.4 °F /  8.6 °C 29.97in /  1014.8hPa Calm     90% 0.00in /  0mm
03:09 50.3 °F /  10.2 °C 47.5 °F /  8.6 °C 29.97in /  1014.8hPa Calm     90% 0.00in /  0mm
03:14 50.3 °F /  10.2 °C 47.5 °F /  8.6 °C 29.97in /  1014.8hPa Calm     90% 0.00in /  0mm
03:19 50.5 °F /  10.3 °C 47.7 °F /  8.7 °C 29.96in /  1014.4hPa Calm     90% 0.00in /  0mm
03:24 50.5 °F /  10.3 °C 47.4 °F /  8.6 °C 29.96in /  1014.4hPa Calm     89% 0.00in /  0mm
03:29 50.1 °F /  10.1 °C 47.0 °F /  8.3 °C 29.97in /  1014.8hPa Calm     89% 0.00in /  0mm
03:31 49.9 °F /  9.9 °C 46.8 °F /  8.2 °C 29.97in /  1014.8hPa Calm     89% 0.00in /  0mm
03:33 49.9 °F /  9.9 °C 47.1 °F /  8.4 °C 29.97in /  1014.8hPa Calm     90% 0.00in /  0mm
03:38 50.3 °F /  10.2 °C 46.9 °F /  8.3 °C 29.97in /  1014.8hPa Calm     88% 0.00in /  0mm
03:43 50.1 °F /  10.1 °C 47.0 °F /  8.3 °C 29.97in /  1014.8hPa Calm     89% 0.00in /  0mm
03:48 50.3 °F /  10.2 °C 47.2 °F /  8.4 °C 29.96in /  1014.4hPa ESE 1.0mph /  1.6km/h 1.0mph /  1.6km/h 89% 0.00in /  0mm
03:53 50.6 °F /  10.3 °C 47.5 °F /  8.6 °C 29.97in /  1014.8hPa Calm   1.0mph /  1.6km/h 89% 0.00in /  0mm
03:54 50.6 °F /  10.3 °C 47.5 °F /  8.6 °C 29.97in /  1014.8hPa Calm   1.0mph /  1.6km/h 89% 0.00in /  0mm
03:55 50.7 °F /  10.4 °C 47.6 °F /  8.7 °C 29.97in /  1014.8hPa Calm   1.0mph /  1.6km/h 89% 0.00in /  0mm
03:58 50.8 °F /  10.4 °C 47.4 °F /  8.6 °C 29.97in /  1014.8hPa Calm     88% 0.00in /  0mm
03:59 50.8 °F /  10.4 °C 47.4 °F /  8.6 °C 29.97in /  1014.8hPa Calm     88% 0.00in /  0mm
04:04 50.8 °F /  10.4 °C 47.4 °F /  8.6 °C 29.97in /  1014.8hPa Calm     88% 0.00in /  0mm
04:06 50.8 °F /  10.4 °C 47.4 °F /  8.6 °C 29.96in /  1014.4hPa Calm   1.0mph /  1.6km/h 88% 0.00in /  0mm
04:09 50.8 °F /  10.4 °C 47.4 °F /  8.6 °C 29.96in /  1014.4hPa Calm   1.0mph /  1.6km/h 88% 0.00in /  0mm
04:14 50.8 °F /  10.4 °C 47.4 °F /  8.6 °C 29.96in /  1014.4hPa Calm     88% 0.00in /  0mm
04:19 50.9 °F /  10.5 °C 47.8 °F /  8.8 °C 29.96in /  1014.4hPa ESE 1.0mph /  1.6km/h 1.0mph /  1.6km/h 89% 0.00in /  0mm
04:24 51.3 °F /  10.7 °C 47.9 °F /  8.8 °C 29.96in /  1014.4hPa Calm   1.0mph /  1.6km/h 88% 0.00in /  0mm
04:29 51.0 °F /  10.6 °C 47.3 °F /  8.5 °C 29.96in /  1014.4hPa Calm     87% 0.00in /  0mm
04:30 51.0 °F /  10.6 °C 47.3 °F /  8.5 °C 29.96in /  1014.4hPa Calm     87% 0.00in /  0mm
04:35 50.8 °F /  10.4 °C 47.7 °F /  8.7 °C 29.96in /  1014.4hPa ENE 1.0mph /  1.6km/h 1.0mph /  1.6km/h 89% 0.00in /  0mm
04:36 50.9 °F /  10.5 °C 47.8 °F /  8.8 °C 29.96in /  1014.4hPa Calm   1.0mph /  1.6km/h 89% 0.00in /  0mm
04:40 51.0 °F /  10.6 °C 47.6 °F /  8.7 °C 29.96in /  1014.4hPa Calm   1.0mph /  1.6km/h 88% 0.00in /  0mm
04:42 50.9 °F /  10.5 °C 47.5 °F /  8.6 °C 29.97in /  1014.8hPa Calm     88% 0.00in /  0mm
04:45 50.8 °F /  10.4 °C 47.4 °F /  8.6 °C 29.97in /  1014.8hPa Calm   1.0mph /  1.6km/h 88% 0.00in /  0mm
04:48 50.8 °F /  10.4 °C 47.7 °F /  8.7 °C 29.97in /  1014.8hPa Calm     89% 0.00in /  0mm
04:53 50.9 °F /  10.5 °C 47.8 °F /  8.8 °C 29.96in /  1014.4hPa Calm     89% 0.00in /  0mm
04:56 50.9 °F /  10.5 °C 47.8 °F /  8.8 °C 29.96in /  1014.4hPa Calm     89% 0.00in /  0mm
04:58 50.8 °F /  10.4 °C 47.4 °F /  8.6 °C 29.96in /  1014.4hPa Calm     88% 0.00in /  0mm
05:03 50.5 °F /  10.3 °C 47.1 °F /  8.4 °C 29.96in /  1014.4hPa Calm     88% 0.00in /  0mm
05:04 50.5 °F /  10.3 °C 47.1 °F /  8.4 °C 29.96in /  1014.4hPa Calm     88% 0.00in /  0mm
05:08 50.1 °F /  10.1 °C 47.3 °F /  8.5 °C 29.96in /  1014.4hPa Calm     90% 0.00in /  0mm
05:14 50.4 °F /  10.2 °C 47.6 °F /  8.7 °C 29.96in /  1014.4hPa East 1.0mph /  1.6km/h 2.0mph /  3.2km/h 90% 0.00in /  0mm
05:19 50.4 °F /  10.2 °C 47.3 °F /  8.5 °C 29.96in /  1014.4hPa East 1.0mph /  1.6km/h 1.0mph /  1.6km/h 89% 0.00in /  0mm
05:24 50.2 °F /  10.1 °C 47.4 °F /  8.6 °C 29.96in /  1014.4hPa East 1.0mph /  1.6km/h 1.0mph /  1.6km/h 90% 0.00in /  0mm
05:30 50.0 °F /  10 °C 47.2 °F /  8.4 °C 29.95in /  1014.1hPa Calm   1.0mph /  1.6km/h 90% 0.00in /  0mm
05:32 49.8 °F /  9.9 °C 47.0 °F /  8.3 °C 29.96in /  1014.4hPa Calm   1.0mph /  1.6km/h 90% 0.00in /  0mm
05:35 49.6 °F /  9.8 °C 46.8 °F /  8.2 °C 29.95in /  1014.1hPa ESE 1.0mph /  1.6km/h 1.0mph /  1.6km/h 90% 0.00in /  0mm
05:36 49.5 °F /  9.7 °C 46.7 °F /  8.2 °C 29.95in /  1014.1hPa East 1.0mph /  1.6km/h 1.0mph /  1.6km/h 90% 0.00in /  0mm
05:38 49.4 °F /  9.7 °C 46.9 °F /  8.3 °C 29.95in /  1014.1hPa East 1.0mph /  1.6km/h 1.0mph /  1.6km/h 91% 0.00in /  0mm
05:43 49.2 °F /  9.6 °C 46.7 °F /  8.2 °C 29.95in /  1014.1hPa East 1.0mph /  1.6km/h 1.0mph /  1.6km/h 91% 0.00in /  0mm
05:48 49.1 °F /  9.5 °C 46.6 °F /  8.1 °C 29.96in /  1014.4hPa Calm   1.0mph /  1.6km/h 91% 0.00in /  0mm
05:49 49.1 °F /  9.5 °C 46.6 °F /  8.1 °C 29.96in /  1014.4hPa Calm   1.0mph /  1.6km/h 91% 0.00in /  0mm
05:54 49.1 °F /  9.5 °C 46.9 °F /  8.3 °C 29.95in /  1014.1hPa East 1.0mph /  1.6km/h 1.0mph /  1.6km/h 92% 0.00in /  0mm
05:59 49.1 °F /  9.5 °C 46.9 °F /  8.3 °C 29.95in /  1014.1hPa East 1.0mph /  1.6km/h 1.0mph /  1.6km/h 92% 0.00in /  0mm
06:04 49.1 °F /  9.5 °C 46.9 °F /  8.3 °C 29.95in /  1014.1hPa East 1.0mph /  1.6km/h 1.0mph /  1.6km/h 92% 0.00in /  0mm
06:09 49.2 °F /  9.6 °C 47.0 °F /  8.3 °C 29.95in /  1014.1hPa Calm   1.0mph /  1.6km/h 92% 0.00in /  0mm
06:15 49.3 °F /  9.6 °C 47.1 °F /  8.4 °C 29.95in /  1014.1hPa Calm   1.0mph /  1.6km/h 92% 0.00in /  0mm
06:19 49.4 °F /  9.7 °C 47.2 °F /  8.4 °C 29.95in /  1014.1hPa Calm   1.0mph /  1.6km/h 92% 0.00in /  0mm
06:25 49.2 °F /  9.6 °C 47.0 °F /  8.3 °C 29.95in /  1014.1hPa Calm     92% 0.00in /  0mm
06:26 49.2 °F /  9.6 °C 47.0 °F /  8.3 °C 29.95in /  1014.1hPa Calm     92% 0.00in /  0mm
06:30 49.0 °F /  9.4 °C 46.8 °F /  8.2 °C 29.95in /  1014.1hPa Calm   1.0mph /  1.6km/h 92% 0.00in /  0mm
06:31 48.9 °F /  9.4 °C 46.7 °F /  8.2 °C 29.95in /  1014.1hPa Calm     92% 0.00in /  0mm
06:34 48.8 °F /  9.3 °C 46.6 °F /  8.1 °C 29.95in /  1014.1hPa Calm     92% 0.00in /  0mm
06:35 48.7 °F /  9.3 °C 46.5 °F /  8.1 °C 29.95in /  1014.1hPa Calm     92% 0.00in /  0mm
06:36 48.7 °F /  9.3 °C 46.8 °F /  8.2 °C 29.95in /  1014.1hPa Calm     93% 0.00in /  0mm
06:41 48.7 °F /  9.3 °C 46.8 °F /  8.2 °C 29.95in /  1014.1hPa East 1.0mph /  1.6km/h 2.0mph /  3.2km/h 93% 0.00in /  0mm
06:46 49.0 °F /  9.4 °C 47.3 °F /  8.5 °C 29.95in /  1014.1hPa ESE 2.0mph /  3.2km/h 2.0mph /  3.2km/h 94% 0.00in /  0mm
06:51 49.0 °F /  9.4 °C 47.1 °F /  8.4 °C 29.95in /  1014.1hPa East 2.0mph /  3.2km/h 2.0mph /  3.2km/h 93% 0.00in /  0mm
06:52 49.1 °F /  9.5 °C 47.2 °F /  8.4 °C 29.95in /  1014.1hPa ESE 2.0mph /  3.2km/h 2.0mph /  3.2km/h 93% 0.00in /  0mm
06:56 49.1 °F /  9.5 °C 47.2 °F /  8.4 °C 29.95in /  1014.1hPa ESE 2.0mph /  3.2km/h 3.0mph /  4.8km/h 93% 0.00in /  0mm
06:57 49.1 °F /  9.5 °C 47.2 °F /  8.4 °C 29.95in /  1014.1hPa ESE 3.0mph /  4.8km/h 3.0mph /  4.8km/h 93% 0.00in /  0mm
06:58 49.1 °F /  9.5 °C 47.2 °F /  8.4 °C 29.95in /  1014.1hPa East 2.0mph /  3.2km/h 3.0mph /  4.8km/h 93% 0.00in /  0mm
07:02 49.1 °F /  9.5 °C 47.2 °F /  8.4 °C 29.95in /  1014.1hPa ESE 3.0mph /  4.8km/h 4.0mph /  6.4km/h 93% 0.00in /  0mm
07:07 49.3 °F /  9.6 °C 47.4 °F /  8.6 °C 29.95in /  1014.1hPa ESE 2.0mph /  3.2km/h 5.0mph /  8km/h 93% 0.00in /  0mm
07:08 49.3 °F /  9.6 °C 47.4 °F /  8.6 °C 29.95in /  1014.1hPa ESE 3.0mph /  4.8km/h 5.0mph /  8km/h 93% 0.00in /  0mm
07:13 49.3 °F /  9.6 °C 47.4 °F /  8.6 °C 29.95in /  1014.1hPa ESE 4.0mph /  6.4km/h 4.0mph /  6.4km/h 93% 0.00in /  0mm
07:18 49.5 °F /  9.7 °C 47.6 °F /  8.7 °C 29.95in /  1014.1hPa ESE 4.0mph /  6.4km/h 5.0mph /  8km/h 93% 0.00in /  0mm
07:23 49.7 °F /  9.8 °C 47.8 °F /  8.8 °C 29.95in /  1014.1hPa ESE 5.0mph /  8km/h 5.0mph /  8km/h 93% 0.00in /  0mm
07:28 50.2 °F /  10.1 °C 48.3 °F /  9.1 °C 29.95in /  1014.1hPa ESE 4.0mph /  6.4km/h 7.0mph /  11.3km/h 93% 0.00in /  0mm
07:29 50.4 °F /  10.2 °C 48.2 °F /  9 °C 29.95in /  1014.1hPa SE 4.0mph /  6.4km/h 7.0mph /  11.3km/h 92% 0.00in /  0mm
07:33 50.6 °F /  10.3 °C 48.4 °F /  9.1 °C 29.95in /  1014.1hPa ESE 6.0mph /  9.7km/h 6.0mph /  9.7km/h 92% 0.00in /  0mm
07:35 50.8 °F /  10.4 °C 48.6 °F /  9.2 °C 29.95in /  1014.1hPa ESE 5.0mph /  8km/h 6.0mph /  9.7km/h 92% 0.00in /  0mm
07:36 50.8 °F /  10.4 °C 48.3 °F /  9.1 °C 29.95in /  1014.1hPa ESE 6.0mph /  9.7km/h 7.0mph /  11.3km/h 91% 0.00in /  0mm
07:41 51.3 °F /  10.7 °C 48.5 °F /  9.2 °C 29.95in /  1014.1hPa East 4.0mph /  6.4km/h 8.0mph /  12.9km/h 90% 0.00in /  0mm
07:46 51.5 °F /  10.8 °C 48.7 °F /  9.3 °C 29.95in /  1014.1hPa ESE 5.0mph /  8km/h 6.0mph /  9.7km/h 90% 0.00in /  0mm
07:51 51.8 °F /  11 °C 49.0 °F /  9.4 °C 29.95in /  1014.1hPa ESE 8.0mph /  12.9km/h 8.0mph /  12.9km/h 90% 0.00in /  0mm
07:52 51.8 °F /  11 °C 49.0 °F /  9.4 °C 29.95in /  1014.1hPa ESE 6.0mph /  9.7km/h 8.0mph /  12.9km/h 90% 0.00in /  0mm
07:54 52.0 °F /  11.1 °C 48.9 °F /  9.4 °C 29.95in /  1014.1hPa East 4.0mph /  6.4km/h 8.0mph /  12.9km/h 89% 0.00in /  0mm
07:56 52.1 °F /  11.2 °C 49.0 °F /  9.4 °C 29.95in /  1014.1hPa ESE 6.0mph /  9.7km/h 7.0mph /  11.3km/h 89% 0.00in /  0mm
07:57 52.2 °F /  11.2 °C 49.1 °F /  9.5 °C 29.95in /  1014.1hPa ESE 4.0mph /  6.4km/h 7.0mph /  11.3km/h 89% 0.00in /  0mm
07:59 52.4 °F /  11.3 °C 49.3 °F /  9.6 °C 29.95in /  1014.1hPa ESE 7.0mph /  11.3km/h 7.0mph /  11.3km/h 89% 0.00in /  0mm
08:04 52.8 °F /  11.6 °C 49.3 °F /  9.6 °C 29.95in /  1014.1hPa ESE 6.0mph /  9.7km/h 7.0mph /  11.3km/h 88% 0.00in /  0mm
08:09 53.2 °F /  11.8 °C 49.7 °F /  9.8 °C 29.95in /  1014.1hPa ESE 6.0mph /  9.7km/h 8.0mph /  12.9km/h 88% 0.00in /  0mm
08:10 53.2 °F /  11.8 °C 49.7 °F /  9.8 °C 29.95in /  1014.1hPa ESE 6.0mph /  9.7km/h 8.0mph /  12.9km/h 88% 0.00in /  0mm
08:15 53.4 °F /  11.9 °C 49.9 °F /  9.9 °C 29.95in /  1014.1hPa ESE 6.0mph /  9.7km/h 8.0mph /  12.9km/h 88% 0.00in /  0mm
08:20 53.7 °F /  12.1 °C 50.2 °F /  10.1 °C 29.95in /  1014.1hPa SE 6.0mph /  9.7km/h 7.0mph /  11.3km/h 88% 0.00in /  0mm
08:25 54.1 °F /  12.3 °C 50.6 °F /  10.3 °C 29.95in /  1014.1hPa ESE 5.0mph /  8km/h 7.0mph /  11.3km/h 88% 0.00in /  0mm
08:26 54.2 °F /  12.3 °C 50.4 °F /  10.2 °C 29.95in /  1014.1hPa ESE 6.0mph /  9.7km/h 7.0mph /  11.3km/h 87% 0.00in /  0mm
08:31 54.6 °F /  12.6 °C 50.8 °F /  10.4 °C 29.95in /  1014.1hPa ESE 5.0mph /  8km/h 6.0mph /  9.7km/h 87% 0.00in /  0mm
08:33 54.8 °F /  12.7 °C 51.0 °F /  10.6 °C 29.95in /  1014.1hPa East 4.0mph /  6.4km/h 7.0mph /  11.3km/h 87% 0.00in /  0mm
08:38 55.0 °F /  12.8 °C 50.9 °F /  10.5 °C 29.95in /  1014.1hPa ESE 5.0mph /  8km/h 6.0mph /  9.7km/h 86% 0.00in /  0mm
08:43 55.4 °F /  13 °C 51.0 °F /  10.6 °C 29.95in /  1014.1hPa ESE 4.0mph /  6.4km/h 8.0mph /  12.9km/h 85% 0.00in /  0mm
08:48 56.1 °F /  13.4 °C 51.3 °F /  10.7 °C 29.95in /  1014.1hPa ESE 7.0mph /  11.3km/h 8.0mph /  12.9km/h 84% 0.00in /  0mm
08:53 56.6 °F /  13.7 °C 51.8 °F /  11 °C 29.95in /  1014.1hPa SE 4.0mph /  6.4km/h 7.0mph /  11.3km/h 84% 0.00in /  0mm
08:56 57.0 °F /  13.9 °C 52.2 °F /  11.2 °C 29.95in /  1014.1hPa SE 3.0mph /  4.8km/h 4.0mph /  6.4km/h 84% 0.00in /  0mm
08:57 57.2 °F /  14 °C 51.8 °F /  11 °C 29.95in /  1014.1hPa SSE 3.0mph /  4.8km/h 6.0mph /  9.7km/h 82% 0.00in /  0mm
08:58 57.4 °F /  14.1 °C 52.0 °F /  11.1 °C 29.95in /  1014.1hPa South 3.0mph /  4.8km/h 6.0mph /  9.7km/h 82% 0.00in /  0mm
09:03 58.3 °F /  14.6 °C 52.2 °F /  11.2 °C 29.95in /  1014.1hPa SSE 5.0mph /  8km/h 5.0mph /  8km/h 80% 0.00in /  0mm
09:04 58.4 °F /  14.7 °C 52.3 °F /  11.3 °C 29.95in /  1014.1hPa SSE 5.0mph /  8km/h 5.0mph /  8km/h 80% 0.00in /  0mm
09:09 58.9 °F /  14.9 °C 52.8 °F /  11.6 °C 29.95in /  1014.1hPa SE 4.0mph /  6.4km/h 5.0mph /  8km/h 80% 0.00in /  0mm
09:14 59.5 °F /  15.3 °C 53.3 °F /  11.8 °C 29.95in /  1014.1hPa SSE 4.0mph /  6.4km/h 7.0mph /  11.3km/h 80% 0.00in /  0mm
09:19 60.5 °F /  15.8 °C 53.3 °F /  11.8 °C 29.95in /  1014.1hPa South 5.0mph /  8km/h 6.0mph /  9.7km/h 77% 0.00in /  0mm
09:24 61.4 °F /  16.3 °C 53.0 °F /  11.7 °C 29.95in /  1014.1hPa SSE 4.0mph /  6.4km/h 7.0mph /  11.3km/h 74% 0.00in /  0mm
09:29 62.0 °F /  16.7 °C 53.6 °F /  12 °C 29.95in /  1014.1hPa SSE 6.0mph /  9.7km/h 9.0mph /  14.5km/h 74% 0.00in /  0mm
09:30 62.1 °F /  16.7 °C 53.3 °F /  11.8 °C 29.95in /  1014.1hPa SE 6.0mph /  9.7km/h 9.0mph /  14.5km/h 73% 0.00in /  0mm
09:35 62.5 °F /  16.9 °C 53.4 °F /  11.9 °C 29.95in /  1014.1hPa SSE 5.0mph /  8km/h 8.0mph /  12.9km/h 72% 0.00in /  0mm
09:40 63.0 °F /  17.2 °C 52.3 °F /  11.3 °C 29.95in /  1014.1hPa South 5.0mph /  8km/h 8.0mph /  12.9km/h 68% 0.00in /  0mm
09:45 63.5 °F /  17.5 °C 53.5 °F /  11.9 °C 29.96in /  1014.4hPa SW 4.0mph /  6.4km/h 6.0mph /  9.7km/h 70% 0.00in /  0mm
09:50 64.0 °F /  17.8 °C 53.2 °F /  11.8 °C 29.97in /  1014.8hPa SSE 5.0mph /  8km/h 9.0mph /  14.5km/h 68% 0.00in /  0mm
09:55 64.5 °F /  18.1 °C 52.9 °F /  11.6 °C 29.98in /  1015.1hPa SE 5.0mph /  8km/h 5.0mph /  8km/h 66% 0.00in /  0mm
09:57 64.6 °F /  18.1 °C 53.8 °F /  12.1 °C 29.98in /  1015.1hPa SE 4.0mph /  6.4km/h 6.0mph /  9.7km/h 68% 0.00in /  0mm
09:58 64.7 °F /  18.2 °C 53.9 °F /  12.2 °C 29.98in /  1015.1hPa SSW 3.0mph /  4.8km/h 6.0mph /  9.7km/h 68% 0.00in /  0mm
10:00 64.9 °F /  18.3 °C 52.9 °F /  11.6 °C 29.98in /  1015.1hPa SSW 5.0mph /  8km/h 7.0mph /  11.3km/h 65% 0.00in /  0mm
10:05 65.6 °F /  18.7 °C 54.8 °F /  12.7 °C 29.98in /  1015.1hPa SSW 5.0mph /  8km/h 7.0mph /  11.3km/h 68% 0.00in /  0mm
10:10 65.8 °F /  18.8 °C 53.7 °F /  12.1 °C 29.98in /  1015.1hPa SE 6.0mph /  9.7km/h 7.0mph /  11.3km/h 65% 0.00in /  0mm
10:11 65.8 °F /  18.8 °C 53.3 °F /  11.8 °C 29.98in /  1015.1hPa SSW 5.0mph /  8km/h 7.0mph /  11.3km/h 64% 0.00in /  0mm
10:16 66.2 °F /  19 °C 52.4 °F /  11.3 °C 29.97in /  1014.8hPa SSW 4.0mph /  6.4km/h 9.0mph /  14.5km/h 61% 0.00in /  0mm
10:21 66.7 °F /  19.3 °C 54.2 °F /  12.3 °C 29.98in /  1015.1hPa South 7.0mph /  11.3km/h 8.0mph /  12.9km/h 64% 0.00in /  0mm
10:26 67.2 °F /  19.6 °C 52.4 °F /  11.3 °C 29.99in /  1015.5hPa SSW 5.0mph /  8km/h 10.0mph /  16.1km/h 59% 0.00in /  0mm
10:27 67.2 °F /  19.6 °C 52.4 °F /  11.3 °C 29.99in /  1015.5hPa SSE 4.0mph /  6.4km/h 10.0mph /  16.1km/h 59% 0.00in /  0mm
10:32 67.9 °F /  19.9 °C 53.5 °F /  11.9 °C 29.98in /  1015.1hPa SSW 4.0mph /  6.4km/h 5.0mph /  8km/h 60% 0.00in /  0mm
10:33 68.0 °F /  20 °C 53.6 °F /  12 °C 29.98in /  1015.1hPa SSE 4.0mph /  6.4km/h 7.0mph /  11.3km/h 60% 0.00in /  0mm
10:37 68.3 °F /  20.2 °C 52.5 °F /  11.4 °C 29.98in /  1015.1hPa South 5.0mph /  8km/h 8.0mph /  12.9km/h 57% 0.00in /  0mm
10:42 68.5 °F /  20.3 °C 53.2 °F /  11.8 °C 29.99in /  1015.5hPa SSW 5.0mph /  8km/h 7.0mph /  11.3km/h 58% 0.00in /  0mm
10:43 68.5 °F /  20.3 °C 52.2 °F /  11.2 °C 29.99in /  1015.5hPa South 6.0mph /  9.7km/h 8.0mph /  12.9km/h 56% 0.00in /  0mm
10:48 68.4 °F /  20.2 °C 53.5 °F /  11.9 °C 29.99in /  1015.5hPa SSE 3.0mph /  4.8km/h 8.0mph /  12.9km/h 59% 0.00in /  0mm
10:49 68.4 °F /  20.2 °C 53.5 °F /  11.9 °C 29.99in /  1015.5hPa SSE 6.0mph /  9.7km/h 8.0mph /  12.9km/h 59% 0.00in /  0mm
10:54 68.3 °F /  20.2 °C 52.0 °F /  11.1 °C 30.00in /  1015.8hPa SW 6.0mph /  9.7km/h 9.0mph /  14.5km/h 56% 0.00in /  0mm
10:56 68.2 °F /  20.1 °C 52.9 °F /  11.6 °C 29.99in /  1015.5hPa South 3.0mph /  4.8km/h 8.0mph /  12.9km/h 58% 0.00in /  0mm
10:59 68.1 °F /  20.1 °C 51.8 °F /  11 °C 29.99in /  1015.5hPa South 6.0mph /  9.7km/h 13.0mph /  20.9km/h 56% 0.00in /  0mm
11:02 68.2 °F /  20.1 °C 52.9 °F /  11.6 °C 29.99in /  1015.5hPa South 5.0mph /  8km/h 9.0mph /  14.5km/h 58% 0.00in /  0mm
11:07 68.4 °F /  20.2 °C 53.1 °F /  11.7 °C 29.99in /  1015.5hPa SE 5.0mph /  8km/h 8.0mph /  12.9km/h 58% 0.00in /  0mm
11:08 68.4 °F /  20.2 °C 53.1 °F /  11.7 °C 29.99in /  1015.5hPa South 6.0mph /  9.7km/h 8.0mph /  12.9km/h 58% 0.00in /  0mm
11:13 68.9 °F /  20.5 °C 53.5 °F /  11.9 °C 29.99in /  1015.5hPa SSW 5.0mph /  8km/h 9.0mph /  14.5km/h 58% 0.00in /  0mm
11:18 69.1 °F /  20.6 °C 54.2 °F /  12.3 °C 30.00in /  1015.8hPa South 5.0mph /  8km/h 6.0mph /  9.7km/h 59% 0.00in /  0mm
11:19 69.3 °F /  20.7 °C 53.9 °F /  12.2 °C 30.00in /  1015.8hPa SW 4.0mph /  6.4km/h 8.0mph /  12.9km/h 58% 0.00in /  0mm
11:23 69.5 °F /  20.8 °C 53.6 °F /  12 °C 30.00in /  1015.8hPa SSE 6.0mph /  9.7km/h 7.0mph /  11.3km/h 57% 0.00in /  0mm
11:28 69.1 °F /  20.6 °C 52.8 °F /  11.6 °C 30.01in /  1016.1hPa WSW 5.0mph /  8km/h 8.0mph /  12.9km/h 56% 0.00in /  0mm
11:30 68.9 °F /  20.5 °C 53.1 °F /  11.7 °C 30.01in /  1016.1hPa SW 5.0mph /  8km/h 8.0mph /  12.9km/h 57% 0.00in /  0mm
11:32 68.8 °F /  20.4 °C 53.0 °F /  11.7 °C 30.01in /  1016.1hPa WSW 5.0mph /  8km/h 7.0mph /  11.3km/h 57% 0.00in /  0mm
11:35 68.9 °F /  20.5 °C 52.6 °F /  11.4 °C 30.01in /  1016.1hPa SSE 4.0mph /  6.4km/h 6.0mph /  9.7km/h 56% 0.00in /  0mm
11:36 68.9 °F /  20.5 °C 53.5 °F /  11.9 °C 30.01in /  1016.1hPa SW 3.0mph /  4.8km/h 6.0mph /  9.7km/h 58% 0.00in /  0mm
11:37 69.0 °F /  20.6 °C 53.6 °F /  12 °C 30.01in /  1016.1hPa West 2.0mph /  3.2km/h 5.0mph /  8km/h 58% 0.00in /  0mm
11:42 69.1 °F /  20.6 °C 53.2 °F /  11.8 °C 30.01in /  1016.1hPa SSW 4.0mph /  6.4km/h 8.0mph /  12.9km/h 57% 0.00in /  0mm
11:47 69.0 °F /  20.6 °C 53.6 °F /  12 °C 30.01in /  1016.1hPa WSW 4.0mph /  6.4km/h 7.0mph /  11.3km/h 58% 0.00in /  0mm
11:52 69.1 °F /  20.6 °C 54.2 °F /  12.3 °C 30.01in /  1016.1hPa SSW 4.0mph /  6.4km/h 6.0mph /  9.7km/h 59% 0.00in /  0mm
11:53 69.1 °F /  20.6 °C 54.2 °F /  12.3 °C 30.01in /  1016.1hPa SW 7.0mph /  11.3km/h 7.0mph /  11.3km/h 59% 0.00in /  0mm
11:54 69.1 °F /  20.6 °C 52.8 °F /  11.6 °C 30.01in /  1016.1hPa SSW 5.0mph /  8km/h 7.0mph /  11.3km/h 56% 0.00in /  0mm
11:58 68.8 °F /  20.4 °C 52.5 °F /  11.4 °C 30.01in /  1016.1hPa SW 2.0mph /  3.2km/h 7.0mph /  11.3km/h 56% 0.00in /  0mm
12:00 68.9 °F /  20.5 °C 54.0 °F /  12.2 °C 30.01in /  1016.1hPa SW 7.0mph /  11.3km/h 7.0mph /  11.3km/h 59% 0.00in /  0mm
12:03 68.7 °F /  20.4 °C 53.3 °F /  11.8 °C 30.01in /  1016.1hPa SSW 2.0mph /  3.2km/h 7.0mph /  11.3km/h 58% 0.00in /  0mm
12:05 68.7 °F /  20.4 °C 53.3 °F /  11.8 °C 30.01in /  1016.1hPa SW 6.0mph /  9.7km/h 6.0mph /  9.7km/h 58% 0.00in /  0mm
12:08 68.8 °F /  20.4 °C 54.4 °F /  12.4 °C 30.01in /  1016.1hPa South 3.0mph /  4.8km/h 5.0mph /  8km/h 60% 0.00in /  0mm
12:11 68.9 °F /  20.5 °C 54.0 °F /  12.2 °C 30.01in /  1016.1hPa SSW 3.0mph /  4.8km/h 4.0mph /  6.4km/h 59% 0.00in /  0mm
12:17 69.0 °F /  20.6 °C 55.0 °F /  12.8 °C 30.00in /  1015.8hPa South 3.0mph /  4.8km/h 5.0mph /  8km/h 61% 0.00in /  0mm
12:22 69.0 °F /  20.6 °C 54.1 °F /  12.3 °C 30.00in /  1015.8hPa SW 5.0mph /  8km/h 6.0mph /  9.7km/h 59% 0.00in /  0mm
12:27 69.0 °F /  20.6 °C 53.6 °F /  12 °C 30.00in /  1015.8hPa South 6.0mph /  9.7km/h 6.0mph /  9.7km/h 58% 0.00in /  0mm
12:28 69.0 °F /  20.6 °C 53.6 °F /  12 °C 30.00in /  1015.8hPa SSW 3.0mph /  4.8km/h 6.0mph /  9.7km/h 58% 0.00in /  0mm
12:32 69.2 °F /  20.7 °C 53.3 °F /  11.8 °C 30.00in /  1015.8hPa South 3.0mph /  4.8km/h 8.0mph /  12.9km/h 57% 0.00in /  0mm
12:34 69.2 °F /  20.7 °C 53.8 °F /  12.1 °C 30.00in /  1015.8hPa WSW 5.0mph /  8km/h 8.0mph /  12.9km/h 58% 0.00in /  0mm
12:35 69.3 °F /  20.7 °C 54.4 °F /  12.4 °C 30.00in /  1015.8hPa WSW 6.0mph /  9.7km/h 8.0mph /  12.9km/h 59% 0.00in /  0mm
12:37 69.4 °F /  20.8 °C 54.5 °F /  12.5 °C 30.01in /  1016.1hPa SW 4.0mph /  6.4km/h 6.0mph /  9.7km/h 59% 0.00in /  0mm
12:41 69.7 °F /  20.9 °C 53.3 °F /  11.8 °C 30.01in /  1016.1hPa SW 2.0mph /  3.2km/h 7.0mph /  11.3km/h 56% 0.00in /  0mm
12:46 70.0 °F /  21.1 °C 55.5 °F /  13.1 °C 30.01in /  1016.1hPa SW 5.0mph /  8km/h 9.0mph /  14.5km/h 60% 0.00in /  0mm
12:52 70.5 °F /  21.4 °C 54.5 °F /  12.5 °C 30.00in /  1015.8hPa SSE 2.0mph /  3.2km/h 6.0mph /  9.7km/h 57% 0.00in /  0mm
12:56 70.6 °F /  21.4 °C 54.2 °F /  12.3 °C 30.00in /  1015.8hPa South 3.0mph /  4.8km/h 6.0mph /  9.7km/h 56% 0.00in /  0mm
12:57 70.7 °F /  21.5 °C 55.2 °F /  12.9 °C 30.00in /  1015.8hPa SW 3.0mph /  4.8km/h 6.0mph /  9.7km/h 58% 0.00in /  0mm
12:58 70.7 °F /  21.5 °C 55.2 °F /  12.9 °C 30.00in /  1015.8hPa SSE 2.0mph /  3.2km/h 5.0mph /  8km/h 58% 0.00in /  0mm
13:01 70.8 °F /  21.6 °C 55.8 °F /  13.2 °C 30.00in /  1015.8hPa SSW 6.0mph /  9.7km/h 6.0mph /  9.7km/h 59% 0.00in /  0mm
13:06 70.5 °F /  21.4 °C 54.5 °F /  12.5 °C 30.01in /  1016.1hPa WSW 7.0mph /  11.3km/h 9.0mph /  14.5km/h 57% 0.00in /  0mm
13:11 70.1 °F /  21.2 °C 54.7 °F /  12.6 °C 30.01in /  1016.1hPa SW 4.0mph /  6.4km/h 7.0mph /  11.3km/h 58% 0.00in /  0mm
13:16 70.4 °F /  21.3 °C 56.8 °F /  13.8 °C 30.01in /  1016.1hPa SW 4.0mph /  6.4km/h 6.0mph /  9.7km/h 62% 0.00in /  0mm
13:22 70.5 °F /  21.4 °C 55.5 °F /  13.1 °C 30.01in /  1016.1hPa WSW 4.0mph /  6.4km/h 7.0mph /  11.3km/h 59% 0.00in /  0mm
13:27 70.2 °F /  21.2 °C 54.3 °F /  12.4 °C 30.02in /  1016.5hPa SW 7.0mph /  11.3km/h 8.0mph /  12.9km/h 57% 0.00in /  0mm
13:28 70.1 °F /  21.2 °C 54.2 °F /  12.3 °C 30.02in /  1016.5hPa SW 6.0mph /  9.7km/h 8.0mph /  12.9km/h 57% 0.00in /  0mm
13:29 70.1 °F /  21.2 °C 54.7 °F /  12.6 °C 30.02in /  1016.5hPa WSW 6.0mph /  9.7km/h 8.0mph /  12.9km/h 58% 0.00in /  0mm
13:33 70.1 °F /  21.2 °C 56.5 °F /  13.6 °C 30.02in /  1016.5hPa WSW 4.0mph /  6.4km/h 6.0mph /  9.7km/h 62% 0.00in /  0mm
13:34 70.1 °F /  21.2 °C 55.1 °F /  12.8 °C 30.02in /  1016.5hPa SW 4.0mph /  6.4km/h 6.0mph /  9.7km/h 59% 0.00in /  0mm
13:37 70.0 °F /  21.1 °C 55.5 °F /  13.1 °C 30.02in /  1016.5hPa SW 6.0mph /  9.7km/h 9.0mph /  14.5km/h 60% 0.00in /  0mm
13:39 70.0 °F /  21.1 °C 55.0 °F /  12.8 °C 30.02in /  1016.5hPa West 4.0mph /  6.4km/h 8.0mph /  12.9km/h 59% 0.00in /  0mm
13:43 70.0 °F /  21.1 °C 56.0 °F /  13.3 °C 30.02in /  1016.5hPa West 7.0mph /  11.3km/h 12.0mph /  19.3km/h 61% 0.00in /  0mm
13:48 70.0 °F /  21.1 °C 56.0 °F /  13.3 °C 30.01in /  1016.1hPa SSW 3.0mph /  4.8km/h 6.0mph /  9.7km/h 61% 0.00in /  0mm
13:57 69.6 °F /  20.9 °C 56.5 °F /  13.6 °C 30.02in /  1016.5hPa SW 5.0mph /  8km/h 5.0mph /  8km/h 63% 0.00in /  0mm
13:58 69.5 °F /  20.8 °C 56.4 °F /  13.6 °C 30.01in /  1016.1hPa WSW 5.0mph /  8km/h 5.0mph /  8km/h 63% 0.00in /  0mm
14:02 69.3 °F /  20.7 °C 56.2 °F /  13.4 °C 30.01in /  1016.1hPa SW 4.0mph /  6.4km/h 10.0mph /  16.1km/h 63% 0.00in /  0mm
14:03 69.2 °F /  20.7 °C 56.1 °F /  13.4 °C 30.01in /  1016.1hPa SW 6.0mph /  9.7km/h 10.0mph /  16.1km/h 63% 0.00in /  0mm
14:08 69.1 °F /  20.6 °C 56.4 °F /  13.6 °C 30.01in /  1016.1hPa WSW 7.0mph /  11.3km/h 7.0mph /  11.3km/h 64% 0.00in /  0mm
14:09 69.1 °F /  20.6 °C 56.4 °F /  13.6 °C 30.01in /  1016.1hPa SW 4.0mph /  6.4km/h 7.0mph /  11.3km/h 64% 0.00in /  0mm
14:14 69.3 °F /  20.7 °C 57.0 °F /  13.9 °C 30.01in /  1016.1hPa SW 6.0mph /  9.7km/h 6.0mph /  9.7km/h 65% 0.00in /  0mm
14:19 69.5 °F /  20.8 °C 57.7 °F /  14.3 °C 30.00in /  1015.8hPa SW 4.0mph /  6.4km/h 6.0mph /  9.7km/h 66% 0.00in /  0mm
14:24 69.6 °F /  20.9 °C 56.9 °F /  13.8 °C 30.01in /  1016.1hPa West 2.0mph /  3.2km/h 5.0mph /  8km/h 64% 0.00in /  0mm
14:29 69.6 °F /  20.9 °C 56.5 °F /  13.6 °C 29.99in /  1015.5hPa SW 4.0mph /  6.4km/h 7.0mph /  11.3km/h 63% 0.00in /  0mm
14:30 69.6 °F /  20.9 °C 57.3 °F /  14.1 °C 29.99in /  1015.5hPa South 4.0mph /  6.4km/h 7.0mph /  11.3km/h 65% 0.00in /  0mm
14:34 69.7 °F /  20.9 °C 56.6 °F /  13.7 °C 29.97in /  1014.8hPa South 6.0mph /  9.7km/h 8.0mph /  12.9km/h 63% 0.00in /  0mm
14:35 69.7 °F /  20.9 °C 57.0 °F /  13.9 °C 29.97in /  1014.8hPa SSE 3.0mph /  4.8km/h 8.0mph /  12.9km/h 64% 0.00in /  0mm
14:36 69.7 °F /  20.9 °C 57.4 °F /  14.1 °C 29.97in /  1014.8hPa SSW 3.0mph /  4.8km/h 8.0mph /  12.9km/h 65% 0.00in /  0mm
14:42 69.7 °F /  20.9 °C 56.6 °F /  13.7 °C 29.98in /  1015.1hPa SW 5.0mph /  8km/h 5.0mph /  8km/h 63% 0.00in /  0mm
14:47 69.8 °F /  21 °C 58.4 °F /  14.7 °C 29.97in /  1014.8hPa SW 2.0mph /  3.2km/h 6.0mph /  9.7km/h 67% 0.00in /  0mm
14:52 69.9 °F /  21.1 °C 57.2 °F /  14 °C 29.97in /  1014.8hPa SSE 7.0mph /  11.3km/h 8.0mph /  12.9km/h 64% 0.00in /  0mm
14:57 69.9 °F /  21.1 °C 56.8 °F /  13.8 °C 29.96in /  1014.4hPa SSW 7.0mph /  11.3km/h 7.0mph /  11.3km/h 63% 0.00in /  0mm
14:58 69.9 °F /  21.1 °C 56.3 °F /  13.5 °C 29.96in /  1014.4hPa SSE 8.0mph /  12.9km/h 8.0mph /  12.9km/h 62% 0.00in /  0mm
15:03 70.1 °F /  21.2 °C 56.9 °F /  13.8 °C 29.95in /  1014.1hPa South 6.0mph /  9.7km/h 9.0mph /  14.5km/h 63% 0.00in /  0mm
15:07 70.3 °F /  21.3 °C 57.1 °F /  13.9 °C 29.94in /  1013.8hPa South 3.0mph /  4.8km/h 8.0mph /  12.9km/h 63% 0.00in /  0mm
15:08 70.3 °F /  21.3 °C 56.7 °F /  13.7 °C 29.94in /  1013.8hPa South 7.0mph /  11.3km/h 8.0mph /  12.9km/h 62% 0.00in /  0mm
15:13 70.5 °F /  21.4 °C 56.9 °F /  13.8 °C 29.94in /  1013.8hPa SE 5.0mph /  8km/h 6.0mph /  9.7km/h 62% 0.00in /  0mm
15:18 70.7 °F /  21.5 °C 57.1 °F /  13.9 °C 29.93in /  1013.4hPa SSE 3.0mph /  4.8km/h 8.0mph /  12.9km/h 62% 0.00in /  0mm
15:23 70.8 °F /  21.6 °C 56.2 °F /  13.4 °C 29.93in /  1013.4hPa SSE 6.0mph /  9.7km/h 8.0mph /  12.9km/h 60% 0.00in /  0mm
15:28 71.0 °F /  21.7 °C 56.9 °F /  13.8 °C 29.92in /  1013.1hPa SSW 8.0mph /  12.9km/h 9.0mph /  14.5km/h 61% 0.00in /  0mm
15:32 71.1 °F /  21.7 °C 57.0 °F /  13.9 °C 29.91in /  1012.8hPa SSE 7.0mph /  11.3km/h 9.0mph /  14.5km/h 61% 0.00in /  0mm
15:33 71.1 °F /  21.7 °C 56.5 °F /  13.6 °C 29.91in /  1012.8hPa SSE 6.0mph /  9.7km/h 9.0mph /  14.5km/h 60% 0.00in /  0mm
15:34 71.2 °F /  21.8 °C 57.1 °F /  13.9 °C 29.91in /  1012.8hPa WSW 6.0mph /  9.7km/h 9.0mph /  14.5km/h 61% 0.00in /  0mm
15:37 71.2 °F /  21.8 °C 56.6 °F /  13.7 °C 29.91in /  1012.8hPa South 6.0mph /  9.7km/h 11.0mph /  17.7km/h 60% 0.00in /  0mm
15:39 71.2 °F /  21.8 °C 57.1 °F /  13.9 °C 29.91in /  1012.8hPa SSW 3.0mph /  4.8km/h 11.0mph /  17.7km/h 61% 0.00in /  0mm
15:44 71.6 °F /  22 °C 56.5 °F /  13.6 °C 29.91in /  1012.8hPa South 7.0mph /  11.3km/h 11.0mph /  17.7km/h 59% 0.00in /  0mm
15:49 71.9 °F /  22.2 °C 56.8 °F /  13.8 °C 29.90in /  1012.4hPa SE 7.0mph /  11.3km/h 11.0mph /  17.7km/h 59% 0.00in /  0mm
15:51 71.9 °F /  22.2 °C 56.8 °F /  13.8 °C 29.90in /  1012.4hPa SSE 7.0mph /  11.3km/h 14.0mph /  22.5km/h 59% 0.00in /  0mm
15:54 71.9 °F /  22.2 °C 56.8 °F /  13.8 °C 29.89in /  1012.1hPa SSE 10.0mph /  16.1km/h 10.0mph /  16.1km/h 59% 0.00in /  0mm
15:58 71.8 °F /  22.1 °C 56.2 °F /  13.4 °C 29.89in /  1012.1hPa ESE 10.0mph /  16.1km/h 10.0mph /  16.1km/h 58% 0.00in /  0mm
15:59 71.8 °F /  22.1 °C 57.6 °F /  14.2 °C 29.89in /  1012.1hPa SSE 5.0mph /  8km/h 10.0mph /  16.1km/h 61% 0.00in /  0mm
16:04 72.0 °F /  22.2 °C 57.4 °F /  14.1 °C 29.88in /  1011.7hPa SE 4.0mph /  6.4km/h 8.0mph /  12.9km/h 60% 0.00in /  0mm
16:09 72.6 °F /  22.6 °C 58.4 °F /  14.7 °C 29.88in /  1011.7hPa SSE 8.0mph /  12.9km/h 11.0mph /  17.7km/h 61% 0.00in /  0mm
16:14 72.8 °F /  22.7 °C 57.2 °F /  14 °C 29.87in /  1011.4hPa SE 6.0mph /  9.7km/h 10.0mph /  16.1km/h 58% 0.00in /  0mm
16:19 72.7 °F /  22.6 °C 56.6 °F /  13.7 °C 29.86in /  1011.1hPa SE 8.0mph /  12.9km/h 13.0mph /  20.9km/h 57% 0.00in /  0mm
16:24 72.9 °F /  22.7 °C 59.1 °F /  15.1 °C 29.86in /  1011.1hPa SE 4.0mph /  6.4km/h 11.0mph /  17.7km/h 62% 0.00in /  0mm
16:25 73.0 °F /  22.8 °C 57.8 °F /  14.3 °C 29.86in /  1011.1hPa SE 7.0mph /  11.3km/h 11.0mph /  17.7km/h 59% 0.00in /  0mm
16:30 73.1 °F /  22.8 °C 57.9 °F /  14.4 °C 29.86in /  1011.1hPa SSE 6.0mph /  9.7km/h 15.0mph /  24.1km/h 59% 0.00in /  0mm
16:31 73.1 °F /  22.8 °C 57.5 °F /  14.2 °C 29.86in /  1011.1hPa ESE 13.0mph /  20.9km/h 15.0mph /  24.1km/h 58% 0.00in /  0mm
16:36 73.1 °F /  22.8 °C 57.5 °F /  14.2 °C 29.87in /  1011.4hPa SE 12.0mph /  19.3km/h 13.0mph /  20.9km/h 58% 0.00in /  0mm
16:37 73.1 °F /  22.8 °C 57.0 °F /  13.9 °C 29.87in /  1011.4hPa SSE 8.0mph /  12.9km/h 13.0mph /  20.9km/h 57% 0.00in /  0mm
16:41 73.2 °F /  22.9 °C 58.0 °F /  14.4 °C 29.87in /  1011.4hPa South 5.0mph /  8km/h 13.0mph /  20.9km/h 59% 0.00in /  0mm
16:43 73.5 °F /  23.1 °C 58.3 °F /  14.6 °C 29.87in /  1011.4hPa SE 8.0mph /  12.9km/h 8.0mph /  12.9km/h 59% 0.00in /  0mm
16:46 73.7 °F /  23.2 °C 58.0 °F /  14.4 °C 29.87in /  1011.4hPa SSW 7.0mph /  11.3km/h 10.0mph /  16.1km/h 58% 0.00in /  0mm
16:51 74.2 °F /  23.4 °C 59.4 °F /  15.2 °C 29.87in /  1011.4hPa SSE 3.0mph /  4.8km/h 12.0mph /  19.3km/h 60% 0.00in /  0mm
16:55 74.2 °F /  23.4 °C 58.0 °F /  14.4 °C 29.87in /  1011.4hPa SSW 9.0mph /  14.5km/h 13.0mph /  20.9km/h 57% 0.00in /  0mm
16:56 74.2 °F /  23.4 °C 59.0 °F /  15 °C 29.87in /  1011.4hPa SSW 6.0mph /  9.7km/h 13.0mph /  20.9km/h 59% 0.00in /  0mm
17:01 74.6 °F /  23.7 °C 57.4 °F /  14.1 °C 29.87in /  1011.4hPa South 11.0mph /  17.7km/h 13.0mph /  20.9km/h 55% 0.00in /  0mm
17:06 74.6 °F /  23.7 °C 57.9 °F /  14.4 °C 29.87in /  1011.4hPa SSW 9.0mph /  14.5km/h 14.0mph /  22.5km/h 56% 0.00in /  0mm
17:12 74.6 °F /  23.7 °C 58.4 °F /  14.7 °C 29.87in /  1011.4hPa SE 11.0mph /  17.7km/h 12.0mph /  19.3km/h 57% 0.00in /  0mm
17:13 74.6 °F /  23.7 °C 58.4 °F /  14.7 °C 29.87in /  1011.4hPa SE 11.0mph /  17.7km/h 12.0mph /  19.3km/h 57% 0.00in /  0mm
17:18 74.8 °F /  23.8 °C 57.6 °F /  14.2 °C 29.86in /  1011.1hPa SW 9.0mph /  14.5km/h 12.0mph /  19.3km/h 55% 0.00in /  0mm
17:23 74.9 °F /  23.8 °C 58.7 °F /  14.8 °C 29.86in /  1011.1hPa SSW 5.0mph /  8km/h 11.0mph /  17.7km/h 57% 0.00in /  0mm
17:28 75.0 °F /  23.9 °C 58.3 °F /  14.6 °C 29.86in /  1011.1hPa South 9.0mph /  14.5km/h 14.0mph /  22.5km/h 56% 0.00in /  0mm
17:29 75.0 °F /  23.9 °C 58.3 °F /  14.6 °C 29.86in /  1011.1hPa SE 11.0mph /  17.7km/h 14.0mph /  22.5km/h 56% 0.00in /  0mm
17:31 74.9 °F /  23.8 °C 57.7 °F /  14.3 °C 29.86in /  1011.1hPa SSW 12.0mph /  19.3km/h 16.0mph /  25.7km/h 55% 0.00in /  0mm
17:34 74.8 °F /  23.8 °C 57.6 °F /  14.2 °C 29.86in /  1011.1hPa SSW 7.0mph /  11.3km/h 14.0mph /  22.5km/h 55% 0.00in /  0mm
17:36 74.8 °F /  23.8 °C 58.1 °F /  14.5 °C 29.85in /  1010.7hPa SSW 12.0mph /  19.3km/h 16.0mph /  25.7km/h 56% 0.00in /  0mm
17:37 74.8 °F /  23.8 °C 58.1 °F /  14.5 °C 29.86in /  1011.1hPa South 8.0mph /  12.9km/h 16.0mph /  25.7km/h 56% 0.00in /  0mm
17:42 74.7 °F /  23.7 °C 58.0 °F /  14.4 °C 29.86in /  1011.1hPa South 5.0mph /  8km/h 17.0mph /  27.4km/h 56% 0.00in /  0mm
17:47 74.9 °F /  23.8 °C 58.2 °F /  14.6 °C 29.86in /  1011.1hPa SW 12.0mph /  19.3km/h 12.0mph /  19.3km/h 56% 0.00in /  0mm
17:52 74.8 °F /  23.8 °C 58.1 °F /  14.5 °C 29.86in /  1011.1hPa SSW 7.0mph /  11.3km/h 14.0mph /  22.5km/h 56% 0.00in /  0mm
17:53 74.8 °F /  23.8 °C 58.1 °F /  14.5 °C 29.86in /  1011.1hPa SSW 8.0mph /  12.9km/h 14.0mph /  22.5km/h 56% 0.00in /  0mm
17:57 75.0 °F /  23.9 °C 58.8 °F /  14.9 °C 29.86in /  1011.1hPa South 6.0mph /  9.7km/h 11.0mph /  17.7km/h 57% 0.00in /  0mm
17:58 75.0 °F /  23.9 °C 59.2 °F /  15.1 °C 29.86in /  1011.1hPa SSE 4.0mph /  6.4km/h 11.0mph /  17.7km/h 58% 0.00in /  0mm
17:59 75.1 °F /  23.9 °C 58.3 °F /  14.6 °C 29.86in /  1011.1hPa SSE 3.0mph /  4.8km/h 11.0mph /  17.7km/h 56% 0.00in /  0mm
18:04 75.1 °F /  23.9 °C 58.3 °F /  14.6 °C 29.86in /  1011.1hPa SSW 8.0mph /  12.9km/h 14.0mph /  22.5km/h 56% 0.00in /  0mm
18:09 75.3 °F /  24.1 °C 59.0 °F /  15 °C 29.86in /  1011.1hPa South 9.0mph /  14.5km/h 10.0mph /  16.1km/h 57% 0.00in /  0mm
18:14 75.2 °F /  24 °C 58.9 °F /  14.9 °C 29.87in /  1011.4hPa SSW 9.0mph /  14.5km/h 13.0mph /  20.9km/h 57% 0.00in /  0mm
18:15 75.2 °F /  24 °C 58.4 °F /  14.7 °C 29.87in /  1011.4hPa South 8.0mph /  12.9km/h 13.0mph /  20.9km/h 56% 0.00in /  0mm
18:16 75.1 °F /  23.9 °C 59.3 °F /  15.2 °C 29.86in /  1011.1hPa South 7.0mph /  11.3km/h 13.0mph /  20.9km/h 58% 0.00in /  0mm
18:21 74.7 °F /  23.7 °C 59.0 °F /  15 °C 29.86in /  1011.1hPa SSW 6.0mph /  9.7km/h 13.0mph /  20.9km/h 58% 0.00in /  0mm
18:26 75.0 °F /  23.9 °C 59.2 °F /  15.1 °C 29.86in /  1011.1hPa South 7.0mph /  11.3km/h 8.0mph /  12.9km/h 58% 0.00in /  0mm
18:27 75.1 °F /  23.9 °C 59.3 °F /  15.2 °C 29.86in /  1011.1hPa SW 7.0mph /  11.3km/h 8.0mph /  12.9km/h 58% 0.00in /  0mm
18:31 75.4 °F /  24.1 °C 59.1 °F /  15.1 °C 29.85in /  1010.7hPa SW 3.0mph /  4.8km/h 11.0mph /  17.7km/h 57% 0.00in /  0mm
18:32 75.4 °F /  24.1 °C 59.1 °F /  15.1 °C 29.85in /  1010.7hPa SSE 3.0mph /  4.8km/h 11.0mph /  17.7km/h 57% 0.00in /  0mm
18:33 75.5 °F /  24.2 °C 59.2 °F /  15.1 °C 29.86in /  1011.1hPa SW 7.0mph /  11.3km/h 11.0mph /  17.7km/h 57% 0.00in /  0mm
18:34 75.5 °F /  24.2 °C 58.2 °F /  14.6 °C 29.85in /  1010.7hPa South 6.0mph /  9.7km/h 11.0mph /  17.7km/h 55% 0.00in /  0mm
18:36 75.6 °F /  24.2 °C 58.8 °F /  14.9 °C 29.85in /  1010.7hPa South 6.0mph /  9.7km/h 11.0mph /  17.7km/h 56% 0.00in /  0mm
18:41 75.5 °F /  24.2 °C 58.2 °F /  14.6 °C 29.85in /  1010.7hPa SSW 6.0mph /  9.7km/h 12.0mph /  19.3km/h 55% 0.00in /  0mm
18:47 75.6 °F /  24.2 °C 59.3 °F /  15.2 °C 29.85in /  1010.7hPa South 5.0mph /  8km/h 10.0mph /  16.1km/h 57% 0.00in /  0mm
18:52 75.6 °F /  24.2 °C 58.8 °F /  14.9 °C 29.85in /  1010.7hPa SSW 3.0mph /  4.8km/h 11.0mph /  17.7km/h 56% 0.00in /  0mm
18:57 75.6 °F /  24.2 °C 58.3 °F /  14.6 °C 29.85in /  1010.7hPa WSW 4.0mph /  6.4km/h 10.0mph /  16.1km/h 55% 0.00in /  0mm
18:58 75.6 °F /  24.2 °C 58.8 °F /  14.9 °C 29.85in /  1010.7hPa SW 4.0mph /  6.4km/h 10.0mph /  16.1km/h 56% 0.00in /  0mm
19:04 75.5 °F /  24.2 °C 58.7 °F /  14.8 °C 29.85in /  1010.7hPa SSW 3.0mph /  4.8km/h 11.0mph /  17.7km/h 56% 0.00in /  0mm
19:09 75.3 °F /  24.1 °C 58.0 °F /  14.4 °C 29.85in /  1010.7hPa South 4.0mph /  6.4km/h 13.0mph /  20.9km/h 55% 0.00in /  0mm
19:14 75.1 °F /  23.9 °C 57.8 °F /  14.3 °C 29.85in /  1010.7hPa SSW 6.0mph /  9.7km/h 9.0mph /  14.5km/h 55% 0.00in /  0mm
19:19 74.9 °F /  23.8 °C 57.7 °F /  14.3 °C 29.85in /  1010.7hPa SSW 6.0mph /  9.7km/h 13.0mph /  20.9km/h 55% 0.00in /  0mm
19:24 74.8 °F /  23.8 °C 58.1 °F /  14.5 °C 29.84in /  1010.4hPa SE 6.0mph /  9.7km/h 9.0mph /  14.5km/h 56% 0.00in /  0mm
19:29 74.7 °F /  23.7 °C 58.0 °F /  14.4 °C 29.84in /  1010.4hPa SSW 9.0mph /  14.5km/h 9.0mph /  14.5km/h 56% 0.00in /  0mm
19:30 74.7 °F /  23.7 °C 58.5 °F /  14.7 °C 29.84in /  1010.4hPa SSW 3.0mph /  4.8km/h 9.0mph /  14.5km/h 57% 0.00in /  0mm
19:36 74.5 °F /  23.6 °C 57.8 °F /  14.3 °C 29.84in /  1010.4hPa South 4.0mph /  6.4km/h 10.0mph /  16.1km/h 56% 0.00in /  0mm
19:37 74.5 °F /  23.6 °C 58.3 °F /  14.6 °C 29.84in /  1010.4hPa SSE 4.0mph /  6.4km/h 8.0mph /  12.9km/h 57% 0.00in /  0mm
19:42 74.3 °F /  23.5 °C 58.1 °F /  14.5 °C 29.84in /  1010.4hPa SW 6.0mph /  9.7km/h 8.0mph /  12.9km/h 57% 0.00in /  0mm
19:47 74.0 °F /  23.3 °C 57.8 °F /  14.3 °C 29.84in /  1010.4hPa SSW 6.0mph /  9.7km/h 10.0mph /  16.1km/h 57% 0.00in /  0mm
19:52 73.8 °F /  23.2 °C 58.1 °F /  14.5 °C 29.84in /  1010.4hPa SE 3.0mph /  4.8km/h 6.0mph /  9.7km/h 58% 0.00in /  0mm
19:54 73.7 °F /  23.2 °C 57.5 °F /  14.2 °C 29.84in /  1010.4hPa South 6.0mph /  9.7km/h 10.0mph /  16.1km/h 57% 0.00in /  0mm
19:57 73.6 °F /  23.1 °C 57.9 °F /  14.4 °C 29.84in /  1010.4hPa SSW 4.0mph /  6.4km/h 10.0mph /  16.1km/h 58% 0.00in /  0mm
19:59 73.5 °F /  23.1 °C 58.3 °F /  14.6 °C 29.84in /  1010.4hPa SSW 5.0mph /  8km/h 6.0mph /  9.7km/h 59% 0.00in /  0mm
20:00 73.4 °F /  23 °C 57.7 °F /  14.3 °C 29.84in /  1010.4hPa SSW 8.0mph /  12.9km/h 9.0mph /  14.5km/h 58% 0.00in /  0mm
20:04 73.2 °F /  22.9 °C 57.5 °F /  14.2 °C 29.84in /  1010.4hPa SSW 7.0mph /  11.3km/h 9.0mph /  14.5km/h 58% 0.00in /  0mm
20:06 73.2 °F /  22.9 °C 57.5 °F /  14.2 °C 29.84in /  1010.4hPa South 6.0mph /  9.7km/h 9.0mph /  14.5km/h 58% 0.00in /  0mm
20:09 73.0 °F /  22.8 °C 57.8 °F /  14.3 °C 29.84in /  1010.4hPa South 3.0mph /  4.8km/h 9.0mph /  14.5km/h 59% 0.00in /  0mm
20:14 72.5 °F /  22.5 °C 57.8 °F /  14.3 °C 29.84in /  1010.4hPa SSW 4.0mph /  6.4km/h 5.0mph /  8km/h 60% 0.00in /  0mm
20:19 72.1 °F /  22.3 °C 57.9 °F /  14.4 °C 29.84in /  1010.4hPa South 5.0mph /  8km/h 6.0mph /  9.7km/h 61% 0.00in /  0mm
20:24 71.7 °F /  22.1 °C 58.0 °F /  14.4 °C 29.84in /  1010.4hPa SSE 4.0mph /  6.4km/h 6.0mph /  9.7km/h 62% 0.00in /  0mm
20:33 70.9 °F /  21.6 °C 57.7 °F /  14.3 °C 29.84in /  1010.4hPa SE 4.0mph /  6.4km/h 6.0mph /  9.7km/h 63% 0.00in /  0mm
20:34 70.7 °F /  21.5 °C 57.9 °F /  14.4 °C 29.84in /  1010.4hPa SSE 5.0mph /  8km/h 6.0mph /  9.7km/h 64% 0.00in /  0mm
20:35 70.6 °F /  21.4 °C 57.8 °F /  14.3 °C 29.84in /  1010.4hPa South 3.0mph /  4.8km/h 6.0mph /  9.7km/h 64% 0.00in /  0mm
20:39 70.2 °F /  21.2 °C 57.5 °F /  14.2 °C 29.84in /  1010.4hPa SSE 4.0mph /  6.4km/h 8.0mph /  12.9km/h 64% 0.00in /  0mm
20:44 69.9 °F /  21.1 °C 57.6 °F /  14.2 °C 29.84in /  1010.4hPa SSE 5.0mph /  8km/h 5.0mph /  8km/h 65% 0.00in /  0mm
20:49 69.5 °F /  20.8 °C 57.2 °F /  14 °C 29.84in /  1010.4hPa SSE 5.0mph /  8km/h 5.0mph /  8km/h 65% 0.00in /  0mm
20:54 69.1 °F /  20.6 °C 57.3 °F /  14.1 °C 29.84in /  1010.4hPa South 3.0mph /  4.8km/h 5.0mph /  8km/h 66% 0.00in /  0mm
20:55 69.1 °F /  20.6 °C 57.3 °F /  14.1 °C 29.84in /  1010.4hPa SSE 2.0mph /  3.2km/h 5.0mph /  8km/h 66% 0.00in /  0mm
20:57 69.0 °F /  20.6 °C 57.2 °F /  14 °C 29.83in /  1010hPa South 5.0mph /  8km/h 7.0mph /  11.3km/h 66% 0.00in /  0mm
21:00 69.0 °F /  20.6 °C 57.2 °F /  14 °C 29.84in /  1010.4hPa South 2.0mph /  3.2km/h 7.0mph /  11.3km/h 66% 0.00in /  0mm
21:05 68.9 °F /  20.5 °C 57.1 °F /  13.9 °C 29.84in /  1010.4hPa SSW 4.0mph /  6.4km/h 4.0mph /  6.4km/h 66% 0.00in /  0mm
21:06 68.9 °F /  20.5 °C 57.1 °F /  13.9 °C 29.84in /  1010.4hPa SSW 4.0mph /  6.4km/h 4.0mph /  6.4km/h 66% 0.00in /  0mm
21:11 68.9 °F /  20.5 °C 57.1 °F /  13.9 °C 29.84in /  1010.4hPa SSW 4.0mph /  6.4km/h 4.0mph /  6.4km/h 66% 0.00in /  0mm
21:16 68.8 °F /  20.4 °C 57.0 °F /  13.9 °C 29.84in /  1010.4hPa SSW 1.0mph /  1.6km/h 3.0mph /  4.8km/h 66% 0.00in /  0mm
21:21 68.6 °F /  20.3 °C 57.2 °F /  14 °C 29.84in /  1010.4hPa SSE 2.0mph /  3.2km/h 4.0mph /  6.4km/h 67% 0.00in /  0mm
21:26 68.3 °F /  20.2 °C 56.9 °F /  13.8 °C 29.84in /  1010.4hPa SSE 2.0mph /  3.2km/h 4.0mph /  6.4km/h 67% 0.00in /  0mm
21:31 68.1 °F /  20.1 °C 57.2 °F /  14 °C 29.84in /  1010.4hPa SSE 2.0mph /  3.2km/h 6.0mph /  9.7km/h 68% 0.00in /  0mm
21:32 68.1 °F /  20.1 °C 57.2 °F /  14 °C 29.84in /  1010.4hPa SSW 4.0mph /  6.4km/h 4.0mph /  6.4km/h 68% 0.00in /  0mm
21:36 67.7 °F /  19.8 °C 56.8 °F /  13.8 °C 29.84in /  1010.4hPa SSE 2.0mph /  3.2km/h 2.0mph /  3.2km/h 68% 0.00in /  0mm
21:38 67.5 °F /  19.7 °C 57.0 °F /  13.9 °C 29.84in /  1010.4hPa SSE 2.0mph /  3.2km/h 2.0mph /  3.2km/h 69% 0.00in /  0mm
21:41 67.3 °F /  19.6 °C 56.8 °F /  13.8 °C 29.84in /  1010.4hPa SSW 2.0mph /  3.2km/h 3.0mph /  4.8km/h 69% 0.00in /  0mm
21:46 67.2 °F /  19.6 °C 56.7 °F /  13.7 °C 29.84in /  1010.4hPa SSE 1.0mph /  1.6km/h 2.0mph /  3.2km/h 69% 0.00in /  0mm
21:51 67.1 °F /  19.5 °C 57.0 °F /  13.9 °C 29.84in /  1010.4hPa SE 1.0mph /  1.6km/h 1.0mph /  1.6km/h 70% 0.00in /  0mm
21:52 67.0 °F /  19.4 °C 56.9 °F /  13.8 °C 29.84in /  1010.4hPa SE 1.0mph /  1.6km/h 1.0mph /  1.6km/h 70% 0.00in /  0mm
21:54 66.9 °F /  19.4 °C 56.8 °F /  13.8 °C 29.85in /  1010.7hPa Calm   1.0mph /  1.6km/h 70% 0.00in /  0mm
21:57 66.8 °F /  19.3 °C 56.7 °F /  13.7 °C 29.85in /  1010.7hPa Calm     70% 0.00in /  0mm
22:00 66.7 °F /  19.3 °C 56.6 °F /  13.7 °C 29.84in /  1010.4hPa Calm     70% 0.00in /  0mm
22:02 66.6 °F /  19.2 °C 56.9 °F /  13.8 °C 29.84in /  1010.4hPa Calm   1.0mph /  1.6km/h 71% 0.00in /  0mm
22:07 66.3 °F /  19.1 °C 56.6 °F /  13.7 °C 29.84in /  1010.4hPa Calm   1.0mph /  1.6km/h 71% 0.00in /  0mm
22:12 66.0 °F /  18.9 °C 56.7 °F /  13.7 °C 29.85in /  1010.7hPa SE 1.0mph /  1.6km/h 1.0mph /  1.6km/h 72% 0.00in /  0mm
22:17 65.9 °F /  18.8 °C 56.6 °F /  13.7 °C 29.85in /  1010.7hPa Calm   1.0mph /  1.6km/h 72% 0.00in /  0mm
22:22 65.7 °F /  18.7 °C 56.8 °F /  13.8 °C 29.85in /  1010.7hPa Calm   1.0mph /  1.6km/h 73% 0.00in /  0mm
22:27 65.6 °F /  18.7 °C 56.7 °F /  13.7 °C 29.85in /  1010.7hPa Calm   1.0mph /  1.6km/h 73% 0.00in /  0mm
22:28 65.6 °F /  18.7 °C 56.7 °F /  13.7 °C 29.85in /  1010.7hPa SE 1.0mph /  1.6km/h 1.0mph /  1.6km/h 73% 0.00in /  0mm
22:32 65.3 °F /  18.5 °C 56.4 °F /  13.6 °C 29.85in /  1010.7hPa SE 1.0mph /  1.6km/h 1.0mph /  1.6km/h 73% 0.00in /  0mm
22:34 65.2 °F /  18.4 °C 56.3 °F /  13.5 °C 29.85in /  1010.7hPa SE 1.0mph /  1.6km/h 1.0mph /  1.6km/h 73% 0.00in /  0mm
22:35 65.2 °F /  18.4 °C 56.7 °F /  13.7 °C 29.85in /  1010.7hPa SE 1.0mph /  1.6km/h 1.0mph /  1.6km/h 74% 0.00in /  0mm
22:36 65.1 °F /  18.4 °C 56.6 °F /  13.7 °C 29.85in /  1010.7hPa Calm   1.0mph /  1.6km/h 74% 0.00in /  0mm
22:37 65.1 °F /  18.4 °C 56.6 °F /  13.7 °C 29.85in /  1010.7hPa Calm   1.0mph /  1.6km/h 74% 0.00in /  0mm
22:42 64.8 °F /  18.2 °C 56.3 °F /  13.5 °C 29.85in /  1010.7hPa SE 1.0mph /  1.6km/h 1.0mph /  1.6km/h 74% 0.00in /  0mm
22:47 64.6 °F /  18.1 °C 56.5 °F /  13.6 °C 29.85in /  1010.7hPa Calm   1.0mph /  1.6km/h 75% 0.00in /  0mm
22:53 64.6 °F /  18.1 °C 56.5 °F /  13.6 °C 29.85in /  1010.7hPa Calm   1.0mph /  1.6km/h 75% 0.00in /  0mm
22:58 64.4 °F /  18 °C 56.3 °F /  13.5 °C 29.86in /  1011.1hPa Calm     75% 0.00in /  0mm
23:03 64.3 °F /  17.9 °C 56.6 °F /  13.7 °C 29.86in /  1011.1hPa SE 1.0mph /  1.6km/h 1.0mph /  1.6km/h 76% 0.00in /  0mm
23:08 64.2 °F /  17.9 °C 56.5 °F /  13.6 °C 29.85in /  1010.7hPa SE 1.0mph /  1.6km/h 1.0mph /  1.6km/h 76% 0.00in /  0mm
23:13 64.0 °F /  17.8 °C 56.7 °F /  13.7 °C 29.85in /  1010.7hPa SE 1.0mph /  1.6km/h 2.0mph /  3.2km/h 77% 0.00in /  0mm
23:18 63.9 °F /  17.7 °C 56.6 °F /  13.7 °C 29.85in /  1010.7hPa SSE 1.0mph /  1.6km/h 2.0mph /  3.2km/h 77% 0.00in /  0mm
23:23 63.9 °F /  17.7 °C 56.6 °F /  13.7 °C 29.86in /  1011.1hPa SSE 1.0mph /  1.6km/h 1.0mph /  1.6km/h 77% 0.00in /  0mm
23:28 64.0 °F /  17.8 °C 56.7 °F /  13.7 °C 29.86in /  1011.1hPa SE 1.0mph /  1.6km/h 1.0mph /  1.6km/h 77% 0.00in /  0mm
23:29 64.0 °F /  17.8 °C 56.7 °F /  13.7 °C 29.86in /  1011.1hPa SE 1.0mph /  1.6km/h 1.0mph /  1.6km/h 77% 0.00in /  0mm
23:34 63.9 °F /  17.7 °C 56.6 °F /  13.7 °C 29.86in /  1011.1hPa Calm   1.0mph /  1.6km/h 77% 0.00in /  0mm
23:36 63.9 °F /  17.7 °C 56.6 °F /  13.7 °C 29.86in /  1011.1hPa SE 1.0mph /  1.6km/h 2.0mph /  3.2km/h 77% 0.00in /  0mm
23:41 63.8 °F /  17.7 °C 56.5 °F /  13.6 °C 29.86in /  1011.1hPa SE 1.0mph /  1.6km/h 1.0mph /  1.6km/h 77% 0.00in /  0mm
23:46 63.8 °F /  17.7 °C 56.5 °F /  13.6 °C 29.86in /  1011.1hPa SE 1.0mph /  1.6km/h 1.0mph /  1.6km/h 77% 0.00in /  0mm
23:52 63.8 °F /  17.7 °C 56.5 °F /  13.6 °C 29.87in /  1011.4hPa Calm   1.0mph /  1.6km/h 77% 0.00in /  0mm
23:53 63.8 °F /  17.7 °C 56.5 °F /  13.6 °C 29.86in /  1011.1hPa Calm   1.0mph /  1.6km/h 77% 0.00in /  0mm
23:58 63.8 °F /  17.7 °C 56.8 °F /  13.8 °C 29.87in /  1011.4hPa SSE 1.0mph /  1.6km/h 1.0mph /  1.6km/h 78% 0.00in /  0mm
23:59 63.8 °F /  17.7 °C 56.8 °F /  13.8 °C 29.87in /  1011.4hPa Calm   1.0mph /  1.6km/h 78% 0.00in /  0mm
Compliments of Weather Underground